Time;durP1;ratioP1;P1;durP2;ratioP2;P2;SDS_P1;SDS_P2;PMS_P1;PMS_P2;Temp;Humidity;BMP_temperature;BMP_pressure;BME280_temperature;BME280_humidity;BME280_pressure;Samples;Min_cycle;Max_cycle;Signal;HPM_P1;HPM_P2
2022/01/21 00:01:21;;;;;;;;;6.00;5.00;;;;;5.31;65.67;102993.31;4881545;29;45634;-52
2022/01/21 00:03:47;;;;;;;;;2.50;2.50;;;;;5.31;65.18;102997.88;4849353;29;46918;-53
2022/01/21 00:06:12;;;;;;;;;5.00;4.75;;;;;5.20;65.08;102986.00;4881239;29;45496;-51
2022/01/21 00:08:39;;;;;;;;;4.50;4.50;;;;;5.08;65.75;102979.66;4864587;29;45377;-51
2022/01/21 00:11:04;;;;;;;;;6.00;6.00;;;;;5.20;65.96;102993.28;4864971;29;45403;-51
2022/01/21 00:13:36;;;;;;;;;5.25;4.00;;;;;4.92;65.22;102951.91;4879543;29;46943;-53
2022/01/21 00:16:03;;;;;;;;;5.00;5.00;;;;;5.20;65.56;102991.44;4834218;29;45783;-51
2022/01/21 00:18:28;;;;;;;;;4.40;4.20;;;;;5.18;65.50;102995.28;4881259;29;45386;-54
2022/01/21 00:31:50;;;;;;;;;5.40;5.40;;;;;5.18;66.04;102981.66;4866615;29;45268;-52
2022/01/21 00:34:15;;;;;;;;;7.00;5.25;;;;;4.91;66.37;102939.28;4880483;29;45655;-50
2022/01/21 00:36:41;;;;;;;;;8.25;5.50;;;;;5.08;66.63;102976.06;4880626;29;45267;-54
2022/01/21 00:39:06;;;;;;;;;4.25;4.00;;;;;4.98;65.99;102968.66;4881055;29;46017;-53
2022/01/21 00:41:36;;;;;;;;;8.00;7.50;;;;;4.83;66.63;102953.50;4880794;29;45286;-54
2022/01/21 00:44:02;;;;;;;;;8.80;6.60;;;;;5.00;66.50;102985.72;4848371;29;47025;-50
2022/01/21 00:46:28;;;;;;;;;6.00;6.00;;;;;4.79;66.85;102941.13;4863458;29;45422;-51
2022/01/21 00:48:53;;;;;;;;;4.50;4.50;;;;;5.02;66.94;102963.81;4863729;29;45364;-52
2022/01/21 00:51:19;;;;;;;;;9.25;5.50;;;;;5.08;66.79;102965.19;4881194;29;45316;-52
2022/01/21 00:53:44;;;;;;;;;8.25;5.50;;;;;5.01;66.34;102964.78;4880517;29;45664;-52
2022/01/21 00:56:10;;;;;;;;;5.25;5.25;;;;;4.99;66.71;102978.53;4879394;29;45359;-54
2022/01/21 00:58:35;;;;;;;;;5.75;4.50;;;;;4.93;66.90;102979.00;4880541;29;45330;-51
2022/01/21 01:01:01;;;;;;;;;8.00;5.50;;;;;4.96;66.95;102975.19;4863932;29;45672;-50
2022/01/21 01:03:26;;;;;;;;;9.00;5.00;;;;;4.92;67.28;102970.97;4880311;29;45447;-53
2022/01/21 01:05:52;;;;;;;;;8.00;8.00;;;;;4.96;67.19;102981.47;4848004;29;45341;-51
2022/01/21 01:08:18;;;;;;;;;7.00;7.00;;;;;4.98;66.60;102975.94;4880395;29;45229;-55
2022/01/21 01:21:32;;;;;;;;;7.40;4.60;;;;;4.99;66.75;102969.50;4880550;29;45400;-55
2022/01/21 01:27:37;;;;;;;;;8.00;6.60;;;;;5.05;67.02;102969.00;4863195;29;46587;-51
2022/01/21 01:29:32;;;;;;;;;5.40;5.40;;;;;5.06;66.64;102978.06;4865809;29;45394;-48
2022/01/21 01:31:57;;;;;;;;;5.50;5.25;;;;;5.03;66.55;102973.72;4880169;29;45405;-51
2022/01/21 01:34:23;;;;;;;;;9.00;6.00;;;;;4.98;66.52;102968.66;4879906;29;45794;-51
2022/01/21 01:36:48;;;;;;;;;11.00;6.50;;;;;4.92;66.75;102965.53;4880142;29;45338;-53
2022/01/21 01:39:30;;;;;;;;;7.00;5.50;;;;;4.92;67.00;102984.56;4880105;29;45395;-52
2022/01/21 01:42:13;;;;;;;;;4.40;4.20;;;;;4.89;67.02;102977.50;4880189;29;45407;-51
2022/01/21 01:50:27;;;;;;;;;5.00;5.00;;;;;4.88;67.42;102973.06;4879683;29;45355;-54
2022/01/21 01:52:52;;;;;;;;;4.75;4.75;;;;;4.83;66.60;102970.69;4879900;29;45888;-49
2022/01/21 01:55:18;;;;;;;;;7.25;5.50;;;;;4.82;67.02;102968.97;4879304;29;45601;-49
2022/01/21 01:57:44;;;;;;;;;4.25;4.25;;;;;4.78;67.59;102977.47;4865544;29;45486;-52
2022/01/21 02:00:10;;;;;;;;;8.50;6.50;;;;;4.61;67.36;102964.16;4844072;29;45392;-49
2022/01/21 02:02:35;;;;;;;;;9.75;8.00;;;;;4.45;67.66;102955.47;4861164;29;45536;-51
2022/01/21 02:05:01;;;;;;;;;8.50;5.00;;;;;4.68;67.98;102988.19;4844203;29;46175;-57
2022/01/21 02:07:26;;;;;;;;;4.50;4.50;;;;;4.37;67.11;102925.28;4859733;29;45412;-50
2022/01/21 02:09:52;;;;;;;;;4.50;4.25;;;;;4.73;67.74;102973.25;4860981;29;45463;-52
2022/01/21 02:12:17;;;;;;;;;6.50;5.25;;;;;4.47;67.53;102940.78;4861178;29;45414;-55
2022/01/21 02:14:49;;;;;;;;;9.00;8.00;;;;;4.83;67.72;102989.75;4843682;29;46381;-50
2022/01/21 02:21:29;;;;;;;;;11.00;5.80;;;;;4.84;67.39;102985.16;4852822;29;45268;-49
2022/01/21 02:22:48;;;;;;;;;8.40;5.60;;;;;4.78;67.19;103000.13;4860983;29;45872;-52
2022/01/21 02:25:18;;;;;;;;;6.80;5.20;;;;;4.67;67.37;102981.91;4844100;29;46415;-49
2022/01/21 02:27:59;;;;;;;;;3.80;3.60;;;;;4.74;67.23;102993.16;4859479;29;45470;-54
2022/01/21 02:30:24;;;;;;;;;5.40;5.00;;;;;4.75;67.19;102995.78;4860619;29;45407;-53
2022/01/21 02:32:55;;;;;;;;;6.50;5.00;;;;;4.53;67.30;102969.34;4859285;29;45361;-51
2022/01/21 02:35:21;;;;;;;;;8.20;4.60;;;;;4.48;67.63;102952.50;4843653;29;46230;-52
2022/01/21 02:37:47;;;;;;;;;7.25;5.00;;;;;4.67;68.13;102987.34;4860270;29;45450;-51
2022/01/21 02:40:12;;;;;;;;;5.50;5.50;;;;;4.64;67.90;102982.13;4860747;29;45343;-53
2022/01/21 02:42:38;;;;;;;;;10.20;5.20;;;;;4.34;67.74;102938.09;4844036;29;45376;-53
2022/01/21 02:45:04;;;;;;;;;6.50;4.50;;;;;4.63;68.05;102983.09;4843498;29;46611;-50
2022/01/21 02:47:30;;;;;;;;;5.60;5.60;;;;;4.60;68.42;102977.91;4860130;29;45256;-52
2022/01/21 02:49:55;;;;;;;;;7.00;7.00;;;;;4.56;67.81;102977.28;4843707;29;45265;-50
2022/01/21 02:52:24;;;;;;;;;5.00;5.00;;;;;4.54;67.91;102984.66;4861044;29;45319;-52
2022/01/21 02:54:50;;;;;;;;;8.80;7.60;;;;;4.61;67.99;102982.38;4843721;29;48300;-49
2022/01/21 02:57:15;;;;;;;;;9.00;6.00;;;;;4.61;68.66;102985.09;4864495;29;45477;-53
2022/01/21 02:59:41;;;;;;;;;5.00;5.00;;;;;4.56;68.22;102980.00;4879116;29;45399;-52
2022/01/21 03:02:06;;;;;;;;;7.25;4.50;;;;;4.53;67.69;102980.22;4879240;29;45785;-52
2022/01/21 03:04:58;;;;;;;;;10.75;7.50;;;;;4.35;67.46;102958.00;4878749;29;45871;-51
2022/01/21 03:07:20;;;;;;;;;6.60;6.60;;;;;4.54;68.55;102989.25;4879042;29;45359;-51
2022/01/21 03:09:46;;;;;;;;;6.00;6.00;;;;;4.27;68.53;102949.56;4846648;29;45381;-52
2022/01/21 03:12:11;;;;;;;;;5.75;5.75;;;;;4.40;68.78;102973.97;4879297;29;45372;-53
2022/01/21 03:14:37;;;;;;;;;6.50;6.50;;;;;4.48;68.19;102985.13;4878872;29;45949;-49
2022/01/21 03:17:02;;;;;;;;;8.25;6.00;;;;;4.43;68.33;102980.03;4879229;29;45391;-52
2022/01/21 03:19:28;;;;;;;;;4.00;4.00;;;;;4.48;68.55;102988.72;4880602;29;45539;-52
2022/01/21 03:21:53;;;;;;;;;11.00;8.50;;;;;4.42;67.92;102974.72;4882502;29;45406;-52
2022/01/21 03:24:19;;;;;;;;;4.75;4.75;;;;;4.25;68.48;102951.53;4865039;29;46226;-54
2022/01/21 03:26:45;;;;;;;;;4.50;4.50;;;;;4.48;68.41;102996.00;4882243;29;45282;-52
2022/01/21 03:29:10;;;;;;;;;6.50;6.00;;;;;4.40;68.73;102988.44;4882105;29;45395;-50
2022/01/21 03:31:36;;;;;;;;;7.25;5.00;;;;;4.43;68.83;102990.94;4882619;29;45305;-53
2022/01/21 03:34:02;;;;;;;;;4.50;4.50;;;;;4.51;68.02;102989.47;4880610;29;45799;-51
2022/01/21 03:36:28;;;;;;;;;9.20;6.80;;;;;4.50;68.44;102999.50;4882055;29;45235;-50
2022/01/21 03:38:54;;;;;;;;;6.20;6.20;;;;;4.53;68.41;102993.81;4882088;29;45481;-52
2022/01/21 03:41:19;;;;;;;;;7.00;5.50;;;;;4.46;68.06;102993.44;4882407;29;45499;-52
2022/01/21 03:43:45;;;;;;;;;4.00;4.00;;;;;4.46;68.61;102992.56;4864912;29;45392;-51
2022/01/21 03:46:10;;;;;;;;;11.00;4.75;;;;;4.50;68.64;102994.06;4881769;29;45308;-53
2022/01/21 03:48:36;;;;;;;;;12.25;7.25;;;;;4.53;68.29;103006.56;4882179;29;45288;-52
2022/01/21 03:51:01;;;;;;;;;15.50;5.25;;;;;4.49;68.42;103016.81;4881688;29;45313;-51
2022/01/21 03:53:27;;;;;;;;;7.50;5.50;;;;;4.38;68.40;103009.44;4879921;29;47310;-54
2022/01/21 03:55:53;;;;;;;;;6.25;5.00;;;;;4.01;68.55;102947.81;4881228;29;45241;-51
2022/01/21 03:58:18;;;;;;;;;8.25;5.75;;;;;4.40;68.93;103002.06;4869450;29;45508;-51
2022/01/21 04:00:53;;;;;;;;;9.50;6.25;;;;;4.45;68.04;103001.69;4862840;29;45572;-53
2022/01/21 04:03:19;;;;;;;;;7.00;4.80;;;;;4.44;68.66;102998.09;4862364;29;46982;-49
2022/01/21 04:05:44;;;;;;;;;5.50;4.25;;;;;4.39;68.77;103004.88;4862453;29;45375;-52
2022/01/21 04:08:11;;;;;;;;;6.00;5.00;;;;;4.35;69.05;103009.69;4845525;29;45846;-51
2022/01/21 04:10:39;;;;;;;;;8.40;6.00;;;;;4.42;68.94;103007.34;4846084;29;45541;-49
2022/01/21 04:13:07;;;;;;;;;8.20;6.00;;;;;4.45;69.00;103009.84;4862150;29;45401;-51
2022/01/21 04:15:33;;;;;;;;;7.20;4.00;;;;;4.42;68.14;102996.47;4861716;29;45324;-53
2022/01/21 04:17:59;;;;;;;;;6.25;1.00;;;;;4.45;68.26;103007.13;4845757;29;45411;-49
2022/01/21 04:20:24;;;;;;;;;8.75;5.75;;;;;4.47;68.19;103010.59;4862281;29;45392;-54
2022/01/21 04:22:49;;;;;;;;;4.50;4.50;;;;;3.76;68.51;102899.88;4861993;29;46007;-52
2022/01/21 04:25:15;;;;;;;;;11.00;6.50;;;;;4.44;68.81;103019.84;4860656;29;45579;-49
2022/01/21 04:27:41;;;;;;;;;7.00;4.75;;;;;4.50;68.07;103023.97;4862518;29;45466;-55
2022/01/21 04:30:07;;;;;;;;;15.25;8.00;;;;;4.52;68.14;103029.28;4861925;29;45447;-49
2022/01/21 04:32:33;;;;;;;;;7.40;6.20;;;;;4.51;68.44;103030.28;4861803;29;45452;-51
2022/01/21 04:34:58;;;;;;;;;5.00;5.00;;;;;4.52;67.89;103019.28;4845387;29;45454;-54
2022/01/21 04:37:24;;;;;;;;;5.00;3.00;;;;;4.54;68.38;103030.91;4862152;29;45409;-51
2022/01/21 04:40:14;;;;;;;;;7.75;7.75;;;;;4.50;68.21;103012.22;4861917;29;45463;-50
2022/01/21 04:48:03;;;;;;;;;11.60;7.00;;;;;4.44;68.78;103030.72;4861933;29;45355;-53
2022/01/21 04:50:38;;;;;;;;;5.00;5.00;;;;;4.40;68.47;103023.81;4862009;29;45440;-51
2022/01/21 04:53:04;;;;;;;;;5.40;4.20;;;;;4.35;68.75;103020.56;4861607;29;46657;-53
2022/01/21 04:55:30;;;;;;;;;4.25;4.25;;;;;4.36;68.59;103016.00;4861420;29;45354;-52
2022/01/21 04:57:55;;;;;;;;;6.00;4.25;;;;;4.38;68.62;103014.03;4870318;29;45452;-50
2022/01/21 05:00:21;;;;;;;;;10.75;6.50;;;;;4.40;68.55;103014.75;4880709;29;45321;-50
2022/01/21 05:02:46;;;;;;;;;9.50;5.50;;;;;4.42;68.21;103016.38;4825027;29;45931;-48
2022/01/21 05:05:12;;;;;;;;;8.75;6.50;;;;;4.44;68.49;103022.56;4844874;29;45527;-52
2022/01/21 05:07:39;;;;;;;;;5.00;4.00;;;;;4.18;68.18;102986.47;4861849;29;45768;-50
2022/01/21 05:10:05;;;;;;;;;9.00;5.80;;;;;4.34;69.02;103013.38;4861476;29;45984;-49
2022/01/21 05:12:31;;;;;;;;;7.60;7.20;;;;;4.47;68.76;103032.34;4861176;29;46461;-49
2022/01/21 05:17:23;;;;;;;;;10.00;5.00;;;;;4.47;68.43;103025.06;4860354;29;45491;-52
2022/01/21 05:19:49;;;;;;;;;6.00;4.20;;;;;3.70;68.40;102901.19;4845128;29;45562;-51
2022/01/21 05:22:14;;;;;;;;;5.00;5.00;;;;;4.48;68.30;103026.81;4861618;29;46630;-54
2022/01/21 05:24:40;;;;;;;;;12.50;8.00;;;;;4.52;68.56;103029.28;4875385;29;45563;-50
2022/01/21 05:27:06;;;;;;;;;5.50;4.00;;;;;4.46;68.03;103030.63;4861538;29;45327;-49
2022/01/21 05:29:33;;;;;;;;;5.00;5.00;;;;;4.23;68.22;102989.72;4861338;29;45556;-48
2022/01/21 05:31:59;;;;;;;;;7.40;6.00;;;;;4.41;67.99;103021.94;4844566;29;47844;-50
2022/01/21 05:34:24;;;;;;;;;8.20;6.00;;;;;4.45;68.92;103020.72;4861254;29;45378;-56
2022/01/21 05:36:50;;;;;;;;;5.00;4.00;;;;;4.51;68.71;103039.31;4861123;29;45455;-51
2022/01/21 05:39:16;;;;;;;;;5.75;5.50;;;;;4.51;68.19;103039.31;4860434;29;45488;-52
2022/01/21 05:41:47;;;;;;;;;4.20;4.20;;;;;4.51;68.89;103036.59;4860487;29;45382;-57
2022/01/21 05:44:20;;;;;;;;;8.20;5.20;;;;;4.42;68.45;103026.38;4861160;29;45355;-51
2022/01/21 05:46:55;;;;;;;;;5.40;4.20;;;;;4.55;67.40;103045.38;4860725;29;45404;-48
2022/01/21 05:49:25;;;;;;;;;4.40;4.00;;;;;4.56;68.35;103039.84;4861259;29;45398;-51
2022/01/21 05:52:02;;;;;;;;;5.80;5.20;;;;;4.57;67.76;103047.00;4859761;29;47133;-49
2022/01/21 05:54:28;;;;;;;;;4.20;4.20;;;;;4.58;68.12;103036.97;4861142;29;45387;-55
2022/01/21 05:56:53;;;;;;;;;6.50;5.00;;;;;4.63;68.24;103042.94;4861215;29;45235;-52
2022/01/21 05:59:19;;;;;;;;;8.00;5.75;;;;;4.59;67.86;103044.19;4877060;29;45360;-52
2022/01/21 06:01:44;;;;;;;;;7.50;4.25;;;;;4.38;68.02;103019.47;4879597;29;45334;-55
2022/01/21 06:04:10;;;;;;;;;5.50;4.75;;;;;4.60;68.28;103062.25;4879714;29;45715;-50
2022/01/21 06:06:36;;;;;;;;;6.25;4.75;;;;;4.64;68.13;103052.84;4863002;29;45860;-52
2022/01/21 06:09:03;;;;;;;;;7.00;5.00;;;;;4.67;67.86;103058.06;4880074;29;45179;-51
2022/01/21 06:11:28;;;;;;;;;8.80;4.40;;;;;4.70;67.17;103054.25;4879627;29;46130;-50
2022/01/21 06:13:54;;;;;;;;;10.75;7.75;;;;;4.71;67.37;103061.44;4862873;29;45903;-50
2022/01/21 06:16:19;;;;;;;;;5.00;4.00;;;;;4.47;67.24;103021.47;4879525;29;45423;-52
2022/01/21 06:18:45;;;;;;;;;9.75;8.00;;;;;4.64;67.71;103061.00;4831355;29;45472;-51
2022/01/21 06:21:11;;;;;;;;;8.00;8.00;;;;;4.63;67.16;103061.16;4858838;29;46152;-48
2022/01/21 06:23:36;;;;;;;;;4.00;2.00;;;;;4.68;67.89;103058.91;4860842;29;45432;-53
2022/01/21 06:26:02;;;;;;;;;5.25;5.00;;;;;4.60;67.51;103052.22;4861123;29;45337;-54
2022/01/21 06:28:27;;;;;;;;;8.25;7.00;;;;;4.65;67.19;103065.50;4861319;29;45315;-51
2022/01/21 06:30:53;;;;;;;;;9.00;4.50;;;;;4.46;67.30;103028.78;4860596;29;45757;-55
2022/01/21 06:33:20;;;;;;;;;5.75;2.00;;;;;4.68;68.24;103061.63;4860580;29;45285;-52
2022/01/21 06:35:47;;;;;;;;;5.00;2.00;;;;;4.69;67.51;103050.66;4860565;29;45354;-54
2022/01/21 06:38:13;;;;;;;;;10.40;6.00;;;;;4.42;68.60;103010.94;4859843;29;45707;-54
2022/01/21 06:40:39;;;;;;;;;4.50;3.50;;;;;4.56;68.07;103039.84;4860768;29;46616;-54
2022/01/21 06:43:04;;;;;;;;;11.50;3.75;;;;;4.70;67.81;103062.41;4860783;29;45359;-54
2022/01/21 06:45:30;;;;;;;;;5.00;5.00;;;;;4.69;68.26;103061.53;4860455;29;45361;-53
2022/01/21 06:47:58;;;;;;;;;12.25;6.75;;;;;4.68;67.37;103067.97;4826344;29;45594;-53
2022/01/21 06:50:25;;;;;;;;;5.20;5.00;;;;;4.67;68.05;103068.94;4840159;29;45614;-54
2022/01/21 06:52:50;;;;;;;;;4.00;4.00;;;;;4.62;67.52;103065.69;4840943;29;45370;-50
2022/01/21 06:55:16;;;;;;;;;5.75;4.00;;;;;4.64;68.07;103074.59;4843974;29;45424;-52
2022/01/21 06:57:41;;;;;;;;;3.50;3.50;;;;;4.61;67.85;103080.28;4845367;29;45929;-51
2022/01/21 07:00:12;;;;;;;;;9.00;4.00;;;;;4.33;68.05;103033.41;4844733;29;45732;-51
2022/01/21 07:02:37;;;;;;;;;5.40;5.20;;;;;4.54;68.44;103068.13;4843648;29;45503;-49
2022/01/21 07:05:04;;;;;;;;;5.75;4.50;;;;;4.43;67.90;103055.34;4845098;29;45425;-50
2022/01/21 07:07:30;;;;;;;;;10.20;4.20;;;;;4.61;67.81;103093.91;4844993;29;45508;-51
2022/01/21 07:09:56;;;;;;;;;7.20;5.40;;;;;4.61;68.38;103091.19;4844803;29;46512;-50
2022/01/21 07:12:21;;;;;;;;;10.25;7.00;;;;;4.50;68.29;103083.81;4843611;29;45392;-51
2022/01/21 07:14:47;;;;;;;;;9.50;7.50;;;;;4.58;68.48;103097.72;4843588;29;45365;-52
2022/01/21 07:17:12;;;;;;;;;5.75;5.00;;;;;4.56;68.46;103102.41;4844978;29;46057;-53
2022/01/21 07:19:38;;;;;;;;;10.75;6.50;;;;;4.58;68.35;103099.53;4844538;29;46124;-51
2022/01/21 07:22:04;;;;;;;;;7.00;5.00;;;;;4.60;68.04;103100.31;4844828;29;45432;-50
2022/01/21 07:24:29;;;;;;;;;7.75;4.75;;;;;4.58;67.85;103102.25;4818704;29;45407;-51
2022/01/21 07:26:55;;;;;;;;;4.75;4.75;;;;;4.52;68.99;103098.16;4825672;29;45281;-55
2022/01/21 07:29:21;;;;;;;;;5.50;4.50;;;;;4.62;68.10;103106.50;4809682;29;47821;-50
2022/01/21 07:31:46;;;;;;;;;7.00;5.25;;;;;4.48;68.82;103102.09;4825040;29;45492;-56
2022/01/21 07:34:12;;;;;;;;;5.25;3.75;;;;;4.54;69.01;103119.81;4826497;29;45355;-51
2022/01/21 07:36:37;;;;;;;;;8.00;6.25;;;;;4.57;69.08;103115.00;4826581;29;45289;-52
2022/01/21 07:39:04;;;;;;;;;8.25;5.50;;;;;4.60;68.70;103116.66;4824487;29;48048;-51
2022/01/21 07:41:29;;;;;;;;;5.60;5.40;;;;;4.63;69.23;103107.38;4824666;29;45328;-50
2022/01/21 07:43:55;;;;;;;;;6.75;4.75;;;;;4.63;68.00;103119.13;4825021;29;45328;-55
2022/01/21 07:46:21;;;;;;;;;7.00;5.25;;;;;4.44;68.78;103078.84;4826511;29;45521;-49
2022/01/21 07:48:46;;;;;;;;;11.25;7.00;;;;;4.61;68.37;103107.50;4825130;29;45434;-53
2022/01/21 07:51:12;;;;;;;;;9.75;7.50;;;;;4.69;68.89;103121.38;4862145;29;45344;-51
2022/01/21 07:53:37;;;;;;;;;4.75;4.75;;;;;4.67;68.11;103117.91;4846494;29;45821;-51
2022/01/21 07:56:03;;;;;;;;;5.00;4.25;;;;;4.75;68.48;103131.81;4862770;29;45376;-51
2022/01/21 07:58:29;;;;;;;;;5.00;5.00;;;;;4.72;68.54;103137.50;4866856;29;45707;-49
2022/01/21 08:00:54;;;;;;;;;5.25;5.25;;;;;4.72;68.36;103145.66;4881418;29;45396;-49
2022/01/21 08:03:20;;;;;;;;;4.50;4.25;;;;;4.71;68.03;103141.19;4881589;29;45317;-52
2022/01/21 08:05:46;;;;;;;;;4.75;3.00;;;;;4.59;68.25;103123.06;4879963;29;45988;-53
2022/01/21 08:08:12;;;;;;;;;9.20;8.20;;;;;4.62;68.25;103144.59;4864427;29;46184;-49
2022/01/21 08:10:38;;;;;;;;;8.00;7.50;;;;;4.65;69.00;103138.06;4880063;29;45535;-51
2022/01/21 08:13:03;;;;;;;;;15.25;9.50;;;;;4.67;68.17;103150.56;4881323;29;45427;-50
2022/01/21 08:15:29;;;;;;;;;8.00;5.00;;;;;4.63;69.06;103137.31;4865040;29;45307;-48
2022/01/21 08:17:55;;;;;;;;;8.50;7.00;;;;;4.73;68.83;103155.56;4864667;29;45455;-53
2022/01/21 08:20:20;;;;;;;;;6.00;6.00;;;;;4.70;68.75;103142.16;4881376;29;45409;-51
2022/01/21 08:22:46;;;;;;;;;12.75;8.00;;;;;4.78;68.94;103155.22;4881637;29;45450;-52
2022/01/21 08:25:11;;;;;;;;;9.75;8.75;;;;;4.78;68.90;103146.16;4881277;29;45364;-54
2022/01/21 08:27:37;;;;;;;;;7.25;6.75;;;;;4.78;68.26;103143.44;4881138;29;45637;-52
2022/01/21 08:30:04;;;;;;;;;13.25;10.50;;;;;4.88;68.59;103158.13;4864452;29;45320;-53
2022/01/21 08:32:30;;;;;;;;;9.00;9.00;;;;;4.91;68.32;103157.88;4880929;29;45353;-49
2022/01/21 08:34:55;;;;;;;;;6.50;5.50;;;;;4.79;67.95;103137.91;4881342;29;45584;-53
2022/01/21 08:37:21;;;;;;;;;12.00;9.50;;;;;4.90;67.36;103150.69;4880755;29;45634;-50
2022/01/21 08:39:47;;;;;;;;;9.00;8.50;;;;;4.85;67.80;103145.59;4881002;29;45418;-48
2022/01/21 08:42:12;;;;;;;;;9.00;9.00;;;;;4.84;68.39;103151.16;4863984;29;45303;-52
2022/01/21 08:44:38;;;;;;;;;11.00;9.00;;;;;4.65;67.88;103119.00;4864683;29;45401;-52
2022/01/21 08:47:04;;;;;;;;;6.00;5.00;;;;;4.88;68.52;103159.00;4879234;29;46515;-50
2022/01/21 08:49:29;;;;;;;;;10.00;10.00;;;;;4.93;68.55;103157.75;4842505;28;46487;-55
2022/01/21 08:51:57;;;;;;;;;10.25;7.00;;;;;4.91;67.90;103157.03;4858765;29;45416;-51
2022/01/21 08:54:23;;;;;;;;;9.00;8.00;;;;;4.93;68.24;103157.75;4862221;29;45371;-51
2022/01/21 08:56:49;;;;;;;;;10.80;8.80;;;;;4.87;68.30;103146.34;4860555;29;45457;-49
2022/01/21 08:59:16;;;;;;;;;10.20;7.80;;;;;4.95;68.25;103153.94;4827662;29;45564;-50
2022/01/21 09:01:42;;;;;;;;;12.40;10.00;;;;;4.92;68.20;103146.03;4854741;29;45469;-53
2022/01/21 09:04:08;;;;;;;;;9.00;8.00;;;;;4.96;67.79;103155.69;4881012;29;45644;-51
2022/01/21 09:06:33;;;;;;;;;8.75;5.75;;;;;5.02;67.71;103157.09;4880720;29;45517;-51
2022/01/21 09:08:59;;;;;;;;;11.50;11.50;;;;;4.92;67.70;103140.59;4880788;29;45369;-51
2022/01/21 09:11:25;;;;;;;;;14.75;12.00;;;;;4.69;67.94;103094.19;4863614;29;45273;-48
2022/01/21 09:13:51;;;;;;;;;11.60;8.40;;;;;5.15;67.91;103168.78;4879749;29;45620;-53
2022/01/21 09:16:17;;;;;;;;;9.00;6.80;;;;;5.18;67.62;103164.94;4879041;29;45611;-51
2022/01/21 09:21:16;;;;;;;;;12.60;8.20;;;;;5.23;67.80;103173.63;4864325;29;45282;-51
2022/01/21 09:23:42;;;;;;;;;12.00;9.20;;;;;5.28;67.83;103174.16;4880702;29;45335;-51
2022/01/21 09:26:08;;;;;;;;;9.00;8.50;;;;;5.32;66.63;103171.22;4878732;29;47334;-51
2022/01/21 09:28:34;;;;;;;;;14.40;12.00;;;;;5.15;67.12;103138.84;4863921;29;45680;-50
2022/01/21 09:30:59;;;;;;;;;9.25;8.50;;;;;5.39;67.53;103177.94;4880990;29;45469;-54
2022/01/21 09:33:25;;;;;;;;;8.00;8.00;;;;;5.43;66.53;103173.97;4880409;29;45785;-51
2022/01/21 09:35:51;;;;;;;;;6.00;6.00;;;;;5.38;66.95;103174.31;4880161;29;45592;-51
2022/01/21 09:38:16;;;;;;;;;12.50;10.50;;;;;5.38;67.09;103181.63;4880098;29;45715;-51
2022/01/21 09:40:49;;;;;;;;;11.75;6.50;;;;;5.43;67.10;103193.91;4879891;29;45387;-50
2022/01/21 09:43:15;;;;;;;;;12.60;11.20;;;;;5.43;67.10;103191.19;4880218;29;45289;-51
2022/01/21 09:45:47;;;;;;;;;5.80;5.00;;;;;5.47;67.55;103188.22;4880048;29;46207;-49
2022/01/21 09:48:20;;;;;;;;;17.60;8.80;;;;;5.51;67.66;103178.84;4880054;29;45412;-52
2022/01/21 09:50:47;;;;;;;;;13.60;10.00;;;;;5.54;67.14;103170.41;4836905;29;45782;-51
2022/01/21 09:53:12;;;;;;;;;16.80;12.20;;;;;5.05;66.62;103102.41;4763383;29;46251;-54
2022/01/21 09:55:38;;;;;;;;;15.25;12.75;;;;;5.66;66.56;103221.22;4832553;29;47867;-53
2022/01/21 09:58:04;;;;;;;;;16.00;13.25;;;;;5.68;65.93;103221.13;4839218;29;45505;-51
2022/01/21 10:00:29;;;;;;;;;12.25;10.00;;;;;5.66;66.50;103217.66;4865927;29;45521;-49
2022/01/21 10:02:59;;;;;;;;;14.75;13.00;;;;;5.58;67.16;103212.78;4844267;29;45568;-49
2022/01/21 10:05:24;;;;;;;;;16.40;13.40;;;;;5.62;66.82;103216.13;4874102;29;45925;-49
2022/01/21 10:07:50;;;;;;;;;20.50;17.00;;;;;5.64;66.59;103223.22;4857825;29;45803;-50
2022/01/21 10:10:16;;;;;;;;;15.00;9.50;;;;;5.62;66.80;103221.59;4857074;29;45805;-48
2022/01/21 10:12:45;;;;;;;;;9.60;7.20;;;;;5.60;67.95;103221.69;4874524;29;45635;-48
2022/01/21 10:15:10;;;;;;;;;15.80;12.20;;;;;5.62;67.83;103211.56;4839431;29;46905;-49
2022/01/21 10:17:36;;;;;;;;;13.75;12.25;;;;;5.70;68.24;103213.69;4855925;29;45928;-55
2022/01/21 10:20:16;;;;;;;;;18.25;14.25;;;;;5.67;68.03;103208.50;4855073;29;45449;-50
2022/01/21 10:22:56;;;;;;;;;11.80;9.80;;;;;5.80;67.51;103224.75;4856031;29;45749;-50
2022/01/21 10:25:21;;;;;;;;;8.00;8.00;;;;;5.79;66.48;103225.75;4838575;29;46410;-54
2022/01/21 10:27:47;;;;;;;;;8.75;8.75;;;;;5.89;66.66;103224.03;4838410;29;45458;-49
2022/01/21 10:30:20;;;;;;;;;9.00;9.00;;;;;5.92;66.91;103225.66;4839200;29;45391;-48
2022/01/21 10:32:46;;;;;;;;;9.00;8.20;;;;;5.76;66.21;103196.00;4855922;29;45886;-51
2022/01/21 10:35:26;;;;;;;;;12.25;9.50;;;;;5.94;66.49;103221.81;4856262;29;45484;-49
2022/01/21 10:37:52;;;;;;;;;12.20;12.20;;;;;5.92;66.03;103223.78;4856528;29;45432;-50
2022/01/21 10:40:19;;;;;;;;;13.75;13.75;;;;;5.93;66.17;103227.41;4856725;29;45475;-48
2022/01/21 10:42:45;;;;;;;;;12.00;12.00;;;;;5.93;66.02;103230.97;4853896;29;45509;-48
2022/01/21 10:45:11;;;;;;;;;17.25;13.50;;;;;5.95;66.57;103219.97;4870174;29;45906;-52
2022/01/21 10:47:39;;;;;;;;;17.20;16.80;;;;;5.93;66.63;103214.63;4858170;29;45552;-52
2022/01/21 10:50:13;;;;;;;;;17.20;13.40;;;;;5.94;65.93;103226.41;4858195;29;45525;-53
2022/01/21 10:52:42;;;;;;;;;15.60;13.40;;;;;5.92;65.99;103220.22;4832991;28;45845;-51
2022/01/21 10:55:37;;;;;;;;;15.60;11.40;;;;;5.98;65.92;103222.47;4855047;29;46534;-54
2022/01/21 10:58:11;;;;;;;;;15.60;13.60;;;;;5.92;66.57;103221.06;4856238;29;45815;-54
2022/01/21 11:00:37;;;;;;;;;21.20;15.20;;;;;5.82;65.98;103210.00;4865296;29;45832;-54
2022/01/21 11:03:11;;;;;;;;;15.50;14.00;;;;;5.83;65.92;103214.47;4875296;29;45640;-50
2022/01/21 11:05:41;;;;;;;;;22.20;19.40;;;;;5.82;66.43;103211.88;4874756;29;45712;-52
2022/01/21 11:08:09;;;;;;;;;16.80;13.80;;;;;5.83;66.49;103206.28;4861683;29;45525;-51
2022/01/21 11:10:37;;;;;;;;;11.60;11.60;;;;;5.86;67.05;103205.19;4856655;29;45431;-50
2022/01/21 11:13:06;;;;;;;;;17.80;13.80;;;;;5.95;66.87;103203.59;4839919;29;45432;-49
2022/01/21 11:15:42;;;;;;;;;15.20;13.00;;;;;6.00;66.88;103212.28;4854563;29;45847;-51
2022/01/21 11:18:09;;;;;;;;;14.00;10.20;;;;;5.89;67.06;103185.88;4856397;29;45908;-55
2022/01/21 11:20:39;;;;;;;;;17.20;14.40;;;;;6.04;65.83;103211.06;4855400;29;45990;-51
2022/01/21 11:23:05;;;;;;;;;12.20;11.80;;;;;5.99;66.29;103198.78;4856223;29;45537;-54
2022/01/21 11:25:43;;;;;;;;;13.00;11.25;;;;;5.86;65.63;103171.63;4854249;29;46427;-50
2022/01/21 11:28:09;;;;;;;;;16.60;13.20;;;;;6.14;66.22;103213.94;4855780;29;45502;-56
2022/01/21 11:30:35;;;;;;;;;13.00;10.60;;;;;6.15;65.97;103206.66;4856560;29;45377;-56
2022/01/21 11:33:00;;;;;;;;;12.50;11.75;;;;;6.16;65.15;103195.63;4856708;29;45778;-50
2022/01/21 11:35:27;;;;;;;;;16.25;13.25;;;;;6.23;65.68;103201.44;4844289;29;45982;-50
2022/01/21 11:37:52;;;;;;;;;14.00;10.00;;;;;6.23;65.42;103193.25;4837594;29;45428;-53
2022/01/21 11:40:18;;;;;;;;;14.75;13.50;;;;;6.08;65.76;103166.22;4848908;29;45855;-54
2022/01/21 11:42:44;;;;;;;;;14.25;13.25;;;;;6.33;65.59;103202.44;4875478;29;46042;-51
2022/01/21 11:50:38;;;;;;;;;19.00;15.20;;;;;6.40;65.55;103205.53;4856725;29;45473;-51
2022/01/21 11:53:05;;;;;;;;;10.00;10.00;;;;;6.37;65.40;103203.06;4818499;29;45803;-53
2022/01/21 11:55:45;;;;;;;;;13.80;11.80;;;;;6.31;65.25;103190.81;4873205;29;46363;-49
2022/01/21 11:58:21;;;;;;;;;18.40;14.00;;;;;6.34;65.95;103189.66;4857907;29;45470;-52
2022/01/21 12:00:48;;;;;;;;;16.40;13.60;;;;;6.45;65.07;103191.56;4859617;29;45404;-49
2022/01/21 12:03:15;;;;;;;;;17.00;16.40;;;;;6.45;65.23;103189.66;4877183;29;45531;-53
2022/01/21 12:05:40;;;;;;;;;13.00;10.60;;;;;6.42;65.22;103197.25;4876372;29;45421;-52
2022/01/21 12:08:06;;;;;;;;;10.00;10.00;;;;;6.30;65.65;103177.28;4858349;29;45974;-50
2022/01/21 12:10:33;;;;;;;;;18.50;14.75;;;;;6.40;64.99;103186.44;4876675;29;45493;-54
2022/01/21 12:13:05;;;;;;;;;14.60;13.80;;;;;6.45;64.87;103186.94;4876787;29;46010;-52
2022/01/21 12:18:32;;;;;;;;;17.00;15.00;;;;;6.48;64.14;103183.09;4861740;29;45683;-50
2022/01/21 12:21:01;;;;;;;;;19.00;13.80;;;;;6.44;65.21;103181.59;4847234;29;45287;-52